createdAt,value
2017-08-06T12:42:23.343Z,553
2017-08-06T12:42:40.419Z,548
2017-08-06T12:42:57.004Z,592
2017-08-06T12:43:13.568Z,595
2017-08-06T12:43:30.153Z,548
2017-08-06T12:43:46.731Z,554
2017-08-06T12:44:03.304Z,518
2017-08-06T12:44:19.874Z,591
2017-08-06T12:44:36.441Z,519
2017-08-06T12:44:53.015Z,591
2017-08-06T12:45:09.611Z,519
2017-08-06T12:45:46.278Z,576
2017-08-06T12:46:02.839Z,455
2017-08-06T12:46:19.407Z,536
2017-08-06T12:46:35.970Z,577
2017-08-06T12:46:52.535Z,535
2017-08-06T12:47:09.097Z,551
2017-08-06T12:47:25.665Z,604
2017-08-06T12:47:42.233Z,528
2017-08-06T12:47:58.791Z,527
2017-08-06T12:48:15.366Z,532
2017-08-06T12:48:31.934Z,559
2017-08-06T12:48:48.496Z,558
2017-08-06T12:49:05.056Z,610
2017-08-06T12:49:21.629Z,565
2017-08-06T12:49:38.185Z,531
2017-08-06T12:49:54.762Z,613
2017-08-06T12:50:11.338Z,594
2017-08-06T12:50:27.905Z,613
2017-08-06T12:50:44.466Z,599
2017-08-06T12:51:01.030Z,558
2017-08-06T12:51:17.613Z,534
2017-08-06T12:51:34.182Z,539
2017-08-06T12:51:51.221Z,613
2017-08-06T12:52:07.781Z,605
2017-08-06T12:52:24.511Z,612
2017-08-06T12:52:41.084Z,536
2017-08-06T12:52:57.624Z,599
2017-08-06T12:53:14.203Z,539
2017-08-06T12:53:30.784Z,537
2017-08-06T12:53:47.350Z,539
2017-08-06T12:54:03.919Z,613
2017-08-06T12:54:20.486Z,538
2017-08-06T12:54:37.048Z,596
2017-08-06T12:54:53.712Z,568
2017-08-06T12:55:10.420Z,548
2017-08-06T12:55:26.993Z,583
2017-08-06T12:55:43.651Z,551
2017-08-06T12:56:00.230Z,543
2017-08-06T12:56:16.802Z,537
2017-08-06T12:56:33.365Z,539
2017-08-06T12:56:49.925Z,613
2017-08-06T12:57:06.489Z,583
2017-08-06T12:57:23.054Z,549
2017-08-06T12:57:39.629Z,585
2017-08-06T12:57:56.193Z,606
2017-08-06T12:58:12.755Z,605
2017-08-06T12:58:29.314Z,554
2017-08-06T12:58:45.877Z,586
2017-08-06T12:59:02.451Z,524
2017-08-06T12:59:19.037Z,527
2017-08-06T12:59:35.612Z,596
2017-08-06T12:59:52.176Z,573
2017-08-06T13:00:08.731Z,592
2017-08-06T13:00:25.300Z,559
2017-08-06T13:00:41.864Z,551
2017-08-06T13:00:58.476Z,524
2017-08-06T13:01:15.053Z,544
2017-08-06T13:01:31.631Z,607
2017-08-06T13:01:48.197Z,515
2017-08-06T13:02:04.771Z,551
2017-08-06T13:02:21.326Z,600
2017-08-06T13:02:38.036Z,552
2017-08-06T13:02:54.611Z,535
2017-08-06T13:03:11.178Z,530
2017-08-06T13:03:27.759Z,608
2017-08-06T13:03:44.324Z,528
2017-08-06T13:04:00.890Z,578
2017-08-06T13:04:17.461Z,501
2017-08-06T13:04:34.021Z,491
2017-08-06T13:04:50.580Z,550
2017-08-06T13:05:07.241Z,494
2017-08-06T13:05:23.801Z,475
2017-08-06T13:05:40.380Z,498
2017-08-06T13:05:56.951Z,606
2017-08-06T13:06:13.521Z,592
2017-08-06T13:06:30.093Z,532
2017-08-06T13:06:46.646Z,569
2017-08-06T13:07:03.209Z,526
2017-08-06T13:07:19.777Z,574
2017-08-06T13:07:36.337Z,531
2017-08-06T13:07:52.907Z,580
2017-08-06T13:08:09.476Z,518
2017-08-06T13:08:26.049Z,520
2017-08-06T13:08:42.603Z,585
2017-08-06T13:08:59.161Z,569
2017-08-06T13:09:15.730Z,579
2017-08-06T13:09:32.432Z,589
2017-08-06T13:09:48.989Z,598
2017-08-06T13:10:05.548Z,549
2017-08-06T13:10:22.126Z,515
2017-08-06T13:10:38.681Z,597
2017-08-06T13:10:55.250Z,596
2017-08-06T13:11:11.820Z,562
2017-08-06T13:11:28.382Z,518
2017-08-06T13:11:44.941Z,547
2017-08-06T13:12:01.505Z,579
2017-08-06T13:12:18.080Z,560
2017-08-06T13:12:34.632Z,531
2017-08-06T13:12:51.194Z,522
2017-08-06T13:13:07.783Z,593
2017-08-06T13:13:24.339Z,527
2017-08-06T13:13:40.901Z,522
2017-08-06T13:13:57.465Z,594
2017-08-06T13:14:14.020Z,585
2017-08-06T13:14:30.584Z,527
2017-08-06T13:14:47.142Z,562
2017-08-06T13:15:03.709Z,565
2017-08-06T13:15:20.279Z,522
2017-08-06T13:15:36.853Z,598
2017-08-06T13:15:53.412Z,558
2017-08-06T13:16:09.996Z,548
2017-08-06T13:16:26.556Z,593
2017-08-06T13:16:43.114Z,521
2017-08-06T13:16:59.678Z,529
2017-08-06T13:41:20.754Z,597
2017-08-06T13:41:37.377Z,584
2017-08-06T13:41:53.950Z,583
2017-08-06T13:42:10.513Z,584
2017-08-06T13:42:27.073Z,583
2017-08-06T13:42:43.635Z,502
2017-08-06T13:43:00.196Z,508
2017-08-06T13:43:16.754Z,500
2017-08-06T13:43:33.321Z,503
2017-08-06T13:43:49.887Z,520
2017-08-06T13:44:06.476Z,578
2017-08-06T13:44:23.021Z,543
2017-08-06T13:44:39.576Z,570
2017-08-06T13:44:56.143Z,497
2017-08-06T13:45:12.700Z,494
2017-08-06T13:45:29.261Z,566
2017-08-06T13:45:45.828Z,573
2017-08-06T13:46:02.383Z,502
2017-08-06T13:46:18.943Z,497
2017-08-06T13:46:35.505Z,539
2017-08-06T13:46:52.068Z,554
2017-08-06T13:47:08.624Z,555
2017-08-06T13:47:25.197Z,494
2017-08-06T13:47:41.765Z,549
2017-08-06T13:47:58.339Z,562
2017-08-06T13:48:14.922Z,539
2017-08-06T13:48:31.476Z,541
2017-08-06T13:48:48.041Z,506
2017-08-06T13:49:04.605Z,501
2017-08-06T13:49:21.170Z,494
2017-08-06T13:49:37.735Z,500
2017-08-06T13:49:54.296Z,498
2017-08-06T13:50:10.878Z,490
2017-08-06T13:50:27.442Z,490
2017-08-06T13:50:44.003Z,485
2017-08-06T13:51:00.559Z,563
2017-08-06T13:51:17.131Z,526
2017-08-06T13:51:33.683Z,564
2017-08-06T13:51:50.256Z,562
2017-08-06T13:52:06.834Z,516
2017-08-06T13:52:23.387Z,489
2017-08-06T13:52:39.951Z,489
2017-08-06T13:52:56.513Z,548
2017-08-06T13:53:13.082Z,564
2017-08-06T13:53:29.639Z,566
2017-08-06T13:53:45.981Z,488
2017-08-06T13:54:02.541Z,565
2017-08-06T13:54:19.094Z,559
2017-08-06T13:54:35.655Z,564
2017-08-06T13:54:52.220Z,566
2017-08-06T13:55:08.778Z,488
2017-08-06T13:55:25.339Z,557
2017-08-06T13:55:41.900Z,561
2017-08-06T13:55:58.461Z,563
2017-08-06T13:56:15.654Z,494
2017-08-06T13:56:32.216Z,484
2017-08-06T13:56:49.520Z,492
2017-08-06T13:57:06.089Z,566
2017-08-06T13:57:22.665Z,489
2017-08-06T13:57:39.230Z,486
2017-08-06T13:57:55.788Z,489
2017-08-06T13:58:12.346Z,576
2017-08-06T13:58:28.926Z,517
2017-08-06T13:58:45.491Z,520
2017-08-06T13:59:02.067Z,599
2017-08-06T13:59:18.630Z,603
2017-08-06T13:59:35.205Z,527
2017-08-06T13:59:51.946Z,591
2017-08-06T14:00:08.496Z,598
2017-08-06T14:00:25.446Z,526
2017-08-06T14:00:41.999Z,599
2017-08-06T14:00:58.567Z,596
2017-08-06T14:01:15.137Z,582
2017-08-06T14:01:31.698Z,542
2017-08-06T14:01:48.268Z,582
2017-08-06T14:02:04.834Z,549
2017-08-06T14:02:21.389Z,512
2017-08-06T14:02:37.961Z,503
2017-08-06T14:02:54.539Z,498
2017-08-06T14:03:11.101Z,576
2017-08-06T14:03:27.678Z,573
2017-08-06T14:03:44.272Z,562
2017-08-06T14:04:00.846Z,489
2017-08-06T14:04:17.405Z,559
2017-08-06T14:04:33.979Z,504
2017-08-06T14:04:50.540Z,509
2017-08-06T14:05:07.107Z,565
2017-08-06T14:05:23.674Z,562
2017-08-06T14:05:40.241Z,489
2017-08-06T14:05:56.803Z,563
2017-08-06T14:06:13.374Z,493
2017-08-06T14:06:30.004Z,532
2017-08-06T14:06:46.573Z,561
2017-08-06T14:07:03.135Z,483
2017-08-06T14:07:19.693Z,525
2017-08-06T14:07:36.258Z,500
2017-08-06T14:07:52.829Z,555
2017-08-06T14:08:09.406Z,562
2017-08-06T14:08:25.970Z,523
2017-08-06T14:08:42.543Z,488
2017-08-06T14:08:59.096Z,486
2017-08-06T14:09:15.659Z,491
2017-08-06T14:09:32.223Z,483
2017-08-06T14:09:48.785Z,542
2017-08-06T14:10:05.346Z,563
2017-08-06T14:10:21.907Z,561
2017-08-06T14:10:38.467Z,561
2017-08-06T14:10:55.035Z,542
2017-08-06T14:11:11.584Z,524
2017-08-06T14:11:28.148Z,494
2017-08-06T14:11:44.715Z,487
2017-08-06T14:12:01.283Z,565
2017-08-06T14:12:17.849Z,565
2017-08-06T14:12:34.413Z,488
2017-08-06T14:12:50.973Z,556
2017-08-06T14:13:07.530Z,559
2017-08-06T14:13:24.098Z,488
2017-08-06T14:13:40.662Z,521
2017-08-06T14:13:57.229Z,518
2017-08-06T14:14:13.797Z,517
2017-08-06T14:14:30.352Z,485
2017-08-06T14:14:46.915Z,496
2017-08-06T14:15:03.481Z,547
2017-08-06T14:15:20.045Z,488
2017-08-06T14:15:36.615Z,487
2017-08-06T14:15:53.177Z,542
2017-08-06T14:16:09.737Z,511
2017-08-06T14:16:26.303Z,554
2017-08-06T14:16:42.869Z,562
2017-08-06T14:16:59.428Z,566
2017-08-06T14:17:15.996Z,545
2017-08-06T14:17:32.556Z,515
2017-08-06T14:17:49.131Z,490
2017-08-06T14:18:05.686Z,485
2017-08-06T14:18:22.246Z,489
2017-08-06T14:18:38.807Z,492
2017-08-06T14:18:55.377Z,517
2017-08-06T14:19:11.938Z,557
2017-08-06T14:19:28.501Z,559
2017-08-06T14:19:45.077Z,569
2017-08-06T14:20:01.627Z,559
2017-08-06T14:20:18.197Z,551
2017-08-06T14:20:34.759Z,491
2017-08-06T14:20:51.318Z,522
2017-08-06T14:21:07.892Z,491
2017-08-06T14:21:24.455Z,494
2017-08-06T14:21:41.024Z,564
2017-08-06T14:21:57.593Z,493
2017-08-06T14:22:14.154Z,544
2017-08-06T14:22:30.505Z,564
2017-08-06T14:22:47.069Z,568
2017-08-06T14:23:03.628Z,569
2017-08-06T14:23:20.193Z,500
2017-08-06T14:23:36.757Z,518
2017-08-06T14:23:53.328Z,496
2017-08-06T14:24:09.926Z,528
2017-08-06T14:24:26.488Z,561
2017-08-06T14:24:43.046Z,562
2017-08-06T14:24:59.425Z,560
2017-08-06T14:25:15.991Z,498
2017-08-06T14:25:32.570Z,503
2017-08-06T14:25:49.131Z,503
2017-08-06T14:26:05.690Z,571
2017-08-06T14:26:22.251Z,572
2017-08-06T14:26:38.816Z,525
2017-08-06T14:26:55.376Z,488
2017-08-06T14:27:11.940Z,540
2017-08-06T14:27:28.521Z,523
2017-08-06T14:27:45.095Z,569
2017-08-06T14:28:01.649Z,573
2017-08-06T14:28:18.229Z,492
2017-08-06T14:28:34.792Z,573
2017-08-06T14:28:51.353Z,561
2017-08-06T14:29:07.914Z,503
2017-08-06T14:29:24.476Z,549
2017-08-06T14:29:41.037Z,554
2017-08-06T14:29:57.602Z,494
2017-08-06T14:30:14.167Z,496
2017-08-06T14:30:30.724Z,526
2017-08-06T14:30:47.291Z,505
2017-08-06T14:31:03.871Z,572
2017-08-06T14:31:20.217Z,471
2017-08-06T14:31:36.782Z,433
2017-08-06T14:31:53.345Z,492
2017-08-06T14:32:09.911Z,507
2017-08-06T14:32:26.478Z,503
2017-08-06T14:32:43.048Z,446
2017-08-06T14:32:59.620Z,533
2017-08-06T14:33:16.173Z,503
2017-08-06T14:33:32.741Z,511
2017-08-06T14:33:49.310Z,493
2017-08-06T14:34:05.873Z,553
2017-08-06T14:34:22.441Z,494
2017-08-06T14:34:39.003Z,466
2017-08-06T14:34:55.578Z,494
2017-08-06T14:35:12.144Z,497
2017-08-06T14:35:28.701Z,535
2017-08-06T14:35:45.267Z,485
2017-08-06T14:36:01.827Z,527
2017-08-06T14:36:18.395Z,521
2017-08-06T14:36:34.957Z,465
2017-08-06T14:36:51.600Z,519
2017-08-06T14:37:08.163Z,497
2017-08-06T14:37:24.786Z,570
2017-08-06T14:37:41.351Z,481
2017-08-06T14:37:58.043Z,515
2017-08-06T14:38:14.599Z,499
2017-08-06T14:38:31.162Z,502
2017-08-06T14:38:47.726Z,475
2017-08-06T14:39:04.293Z,511
2017-08-06T14:39:20.849Z,522
2017-08-06T14:39:37.409Z,460
2017-08-06T14:39:53.985Z,461
2017-08-06T14:40:10.538Z,544
2017-08-06T14:40:27.101Z,568
2017-08-06T14:40:43.673Z,562
2017-08-06T14:41:00.241Z,487
2017-08-06T14:41:16.805Z,441
2017-08-06T14:41:33.371Z,548
2017-08-06T14:41:49.932Z,525
2017-08-06T14:42:06.491Z,545
2017-08-06T14:42:23.061Z,529
2017-08-06T14:42:39.620Z,515
2017-08-06T14:42:56.180Z,505
2017-08-06T14:43:12.741Z,508
2017-08-06T14:43:29.312Z,460
2017-08-06T14:43:45.874Z,436
2017-08-06T14:44:02.443Z,519
2017-08-06T14:44:19.013Z,519
2017-08-06T14:44:35.575Z,447
2017-08-06T14:44:52.194Z,462
2017-08-06T14:45:08.753Z,511
2017-08-06T14:45:25.325Z,454
2017-08-06T14:45:41.880Z,512
2017-08-06T14:45:58.454Z,556
2017-08-06T14:46:15.022Z,573
2017-08-06T14:46:31.583Z,569
2017-08-06T14:46:48.211Z,574
2017-08-06T14:47:04.787Z,533
2017-08-06T14:47:21.362Z,512
2017-08-06T14:47:37.925Z,559
2017-08-06T14:47:54.503Z,580
2017-08-06T14:48:11.060Z,570
2017-08-06T14:48:27.624Z,544
2017-08-06T14:48:44.199Z,580
2017-08-06T14:49:00.762Z,571
2017-08-06T14:49:17.326Z,507
2017-08-06T14:49:33.896Z,552
2017-08-06T14:49:50.465Z,507
2017-08-06T14:50:07.040Z,504
2017-08-06T14:50:23.601Z,501
2017-08-06T14:50:40.169Z,509
2017-08-06T14:50:56.729Z,509
2017-08-06T14:51:13.306Z,571
2017-08-06T14:51:29.863Z,567
2017-08-06T14:51:46.441Z,565
2017-08-06T14:52:03.000Z,561
2017-08-06T14:52:19.565Z,503
2017-08-06T14:52:36.127Z,497
2017-08-06T14:52:52.689Z,495
2017-08-06T14:53:09.249Z,499
2017-08-06T14:53:25.902Z,526
2017-08-06T14:53:42.468Z,501
2017-08-06T14:53:59.038Z,497
2017-08-06T14:54:15.605Z,564
2017-08-06T14:54:32.168Z,491
2017-08-06T14:54:48.740Z,553
2017-08-06T14:55:05.306Z,501
2017-08-06T14:55:21.871Z,487
2017-08-06T14:55:38.438Z,482
2017-08-06T14:55:54.998Z,563
2017-08-06T14:56:11.558Z,501
2017-08-06T14:56:28.120Z,561
2017-08-06T14:56:44.838Z,521
2017-08-06T14:57:01.408Z,565
2017-08-06T14:57:17.985Z,563
2017-08-06T14:57:34.555Z,487
2017-08-06T14:57:51.422Z,489
2017-08-06T14:58:07.988Z,550
2017-08-06T14:58:24.535Z,560
2017-08-06T14:58:41.109Z,555
2017-08-06T14:58:57.673Z,485
2017-08-06T14:59:14.237Z,502
2017-08-06T14:59:30.806Z,525
2017-08-06T14:59:47.374Z,484
2017-08-06T15:00:03.942Z,555
2017-08-06T15:00:20.502Z,510
2017-08-06T15:00:37.076Z,488
2017-08-06T15:00:53.639Z,556
2017-08-06T15:01:10.212Z,479
2017-08-06T15:01:26.787Z,502
2017-08-06T15:01:43.354Z,485
2017-08-06T15:01:59.922Z,509
2017-08-06T15:02:16.505Z,559
2017-08-06T15:02:33.061Z,544
2017-08-06T15:02:49.631Z,525
2017-08-06T15:03:06.212Z,541
2017-08-06T15:03:22.772Z,480
2017-08-06T15:03:39.329Z,508
2017-08-06T15:03:55.895Z,558
2017-08-06T15:04:12.469Z,547
2017-08-06T15:04:29.032Z,489
2017-08-06T15:04:45.593Z,558
2017-08-06T15:05:02.162Z,488
2017-08-06T15:05:18.733Z,483
2017-08-06T15:05:35.308Z,556
2017-08-06T15:05:51.866Z,479
2017-08-06T15:06:08.445Z,479
2017-08-06T15:06:25.007Z,491
2017-08-06T15:06:41.576Z,507
2017-08-06T15:06:58.152Z,544
2017-08-06T15:07:14.713Z,476
2017-08-06T15:07:31.268Z,555
2017-08-06T15:07:47.832Z,487
2017-08-06T15:08:04.408Z,482
2017-08-06T15:08:20.965Z,501
2017-08-06T15:08:37.539Z,552
2017-08-06T15:08:54.114Z,475
2017-08-06T15:09:10.676Z,514
2017-08-06T15:09:27.237Z,551
2017-08-06T15:09:43.803Z,484
2017-08-06T15:10:00.396Z,523
2017-08-06T15:10:16.960Z,536
2017-08-06T15:10:33.524Z,474
2017-08-06T15:10:50.085Z,548
2017-08-06T15:11:06.644Z,474
2017-08-06T15:11:23.227Z,474
2017-08-06T15:11:39.782Z,553
2017-08-06T15:11:56.348Z,475
2017-08-06T15:12:12.917Z,474
2017-08-06T15:12:29.489Z,539
2017-08-06T15:12:46.224Z,475
2017-08-06T15:13:02.798Z,508
2017-08-06T15:13:19.360Z,553
2017-08-06T15:13:35.938Z,475
2017-08-06T15:13:52.488Z,553
2017-08-06T15:14:09.050Z,484
2017-08-06T15:14:25.624Z,482
2017-08-06T15:14:42.182Z,493
2017-08-06T15:14:58.747Z,464
2017-08-06T15:15:15.312Z,537
2017-08-06T15:15:31.878Z,536
2017-08-06T15:15:48.454Z,492
2017-08-06T15:16:05.014Z,511
2017-08-06T15:16:21.574Z,441
2017-08-06T15:16:38.130Z,525
2017-08-06T15:16:54.697Z,398
2017-08-06T15:17:11.263Z,449
2017-08-06T15:17:27.829Z,466
2017-08-06T15:17:44.394Z,478
2017-08-06T15:18:00.972Z,420
2017-08-06T15:18:17.545Z,527
2017-08-06T15:18:34.099Z,467
2017-08-06T15:18:50.674Z,495
2017-08-06T15:19:07.238Z,439
2017-08-06T15:19:23.793Z,523
2017-08-06T15:19:40.355Z,458
2017-08-06T15:19:56.925Z,538
2017-08-06T15:20:13.498Z,546
2017-08-06T15:20:30.061Z,469
2017-08-06T15:20:46.629Z,535
2017-08-06T15:21:03.202Z,466
2017-08-06T15:21:19.774Z,474
2017-08-06T15:21:36.331Z,547
2017-08-06T15:21:52.897Z,480
2017-08-06T15:22:09.470Z,534
2017-08-06T15:22:26.025Z,536
2017-08-06T15:22:42.590Z,490
2017-08-06T15:22:59.163Z,544
2017-08-06T15:23:15.731Z,468
2017-08-06T15:23:32.290Z,544
2017-08-06T15:23:49.011Z,495
2017-08-06T15:24:05.581Z,491
2017-08-06T15:24:22.153Z,392
2017-08-06T15:24:38.729Z,443
2017-08-06T15:24:55.289Z,455
2017-08-06T15:25:11.854Z,426
2017-08-06T15:25:28.420Z,378
2017-08-06T15:25:44.980Z,378
2017-08-06T15:26:01.544Z,386
2017-08-06T15:26:18.109Z,366
2017-08-06T15:26:34.667Z,374
2017-08-06T15:26:51.238Z,447
2017-08-06T15:27:07.808Z,447
2017-08-06T15:27:24.366Z,445
2017-08-06T15:27:40.926Z,413
2017-08-06T15:27:57.507Z,369
2017-08-06T15:28:14.083Z,377
2017-08-06T15:28:30.638Z,426
2017-08-06T15:28:47.355Z,377
2017-08-06T15:29:03.917Z,368
2017-08-06T15:29:20.481Z,372
2017-08-06T15:29:37.047Z,434
2017-08-06T15:29:53.611Z,374
2017-08-06T15:30:10.175Z,415
2017-08-06T15:30:26.738Z,468
2017-08-06T15:30:43.301Z,452
2017-08-06T15:30:59.866Z,426
2017-08-06T15:31:16.443Z,489
2017-08-06T15:31:33.015Z,465
2017-08-06T15:31:49.583Z,514
2017-08-06T15:32:06.160Z,488
2017-08-06T15:32:22.716Z,513
2017-08-06T15:32:39.284Z,534
2017-08-06T15:32:55.851Z,461
2017-08-06T15:33:12.425Z,472
2017-08-06T15:33:28.978Z,525
2017-08-06T15:33:45.540Z,472
2017-08-06T15:34:02.115Z,518
2017-08-06T15:34:18.688Z,543
2017-08-06T15:34:35.256Z,493
2017-08-06T15:34:51.824Z,513
2017-08-06T15:35:08.383Z,472
2017-08-06T15:35:24.955Z,538
2017-08-06T15:35:41.522Z,541
2017-08-06T15:35:58.101Z,537
2017-08-06T15:36:14.681Z,540
2017-08-06T15:36:31.239Z,541
2017-08-06T15:36:47.819Z,533
2017-08-06T15:37:04.391Z,461
2017-08-06T15:37:20.953Z,515
2017-08-06T15:37:37.523Z,466
2017-08-06T15:37:54.082Z,529
2017-08-06T15:38:10.650Z,461
2017-08-06T15:38:27.245Z,515
2017-08-06T15:38:43.789Z,468
2017-08-06T15:39:00.453Z,460
2017-08-06T15:39:17.016Z,538
2017-08-06T15:39:33.587Z,502
2017-08-06T15:39:50.151Z,476
2017-08-06T15:40:06.730Z,456
2017-08-06T15:40:23.287Z,532
2017-08-06T15:40:43.791Z,535
2017-08-06T15:41:00.360Z,456
2017-08-06T15:41:16.921Z,531
2017-08-06T15:41:33.486Z,532
2017-08-06T15:41:50.062Z,489
2017-08-06T15:42:06.619Z,533
2017-08-06T15:42:23.194Z,512
2017-08-06T15:42:39.756Z,535
2017-08-06T15:42:56.334Z,455
2017-08-06T15:43:12.911Z,456
2017-08-06T15:43:29.494Z,445
2017-08-06T15:43:46.061Z,431
2017-08-06T15:44:02.681Z,401
2017-08-06T15:44:19.253Z,428
2017-08-06T15:44:35.825Z,455
2017-08-06T15:44:52.392Z,454
2017-08-06T15:45:08.954Z,457
2017-08-06T15:45:25.509Z,469
2017-08-06T15:45:42.071Z,460
2017-08-06T15:45:58.635Z,470
2017-08-06T15:46:15.200Z,530
2017-08-06T15:46:31.762Z,534
2017-08-06T15:46:48.325Z,486
2017-08-06T15:47:04.885Z,485
2017-08-06T15:47:21.446Z,532
2017-08-06T15:47:38.015Z,534
2017-08-06T15:47:54.604Z,458
2017-08-06T15:48:11.176Z,534
2017-08-06T15:48:27.745Z,511
2017-08-06T15:48:44.320Z,452
2017-08-06T15:49:00.661Z,453
2017-08-06T15:49:17.243Z,524
2017-08-06T15:49:33.800Z,473
2017-08-06T15:49:50.374Z,530
2017-08-06T15:50:06.939Z,513
2017-08-06T15:50:23.499Z,460
2017-08-06T15:50:40.087Z,467
2017-08-06T15:50:56.634Z,459
2017-08-06T15:51:13.206Z,452
2017-08-06T15:51:29.764Z,527
2017-08-06T15:51:46.365Z,520
2017-08-06T15:52:02.918Z,448
2017-08-06T15:52:19.497Z,494
2017-08-06T15:52:36.105Z,452
2017-08-06T15:52:52.688Z,445
2017-08-06T15:53:09.240Z,521
2017-08-06T15:53:25.894Z,500
2017-08-06T15:53:42.463Z,525
2017-08-06T15:53:59.029Z,497
2017-08-06T15:54:15.601Z,496
2017-08-06T15:54:32.157Z,336
2017-08-06T15:54:50.286Z,502
2017-08-06T15:55:06.845Z,518
2017-08-06T15:55:23.411Z,438
2017-08-06T15:55:39.985Z,507
2017-08-06T15:55:56.547Z,445
2017-08-06T15:56:13.112Z,443
2017-08-06T15:56:29.677Z,456
2017-08-06T15:56:46.252Z,464
2017-08-06T15:57:02.828Z,489
2017-08-06T15:57:19.392Z,434
2017-08-06T15:57:35.965Z,513
2017-08-06T15:57:52.538Z,432
2017-08-06T15:58:09.099Z,440
2017-08-06T15:58:25.705Z,440
2017-08-06T15:58:42.274Z,507
2017-08-06T15:58:58.834Z,513
2017-08-06T15:59:15.410Z,483
2017-08-06T15:59:31.965Z,510
2017-08-06T15:59:48.530Z,442
2017-08-06T16:00:05.089Z,513
2017-08-06T16:00:21.691Z,501
2017-08-06T16:00:38.254Z,437
2017-08-06T16:00:54.825Z,513
2017-08-06T16:01:11.393Z,431
2017-08-06T16:01:27.965Z,441
2017-08-06T16:01:44.533Z,505
2017-08-06T16:02:01.108Z,491
2017-08-06T16:02:17.675Z,474
2017-08-06T16:02:34.238Z,509
2017-08-06T16:02:50.802Z,432
2017-08-06T16:03:07.372Z,487
2017-08-06T16:03:23.937Z,472
2017-08-06T16:03:40.503Z,424
2017-08-06T16:03:57.056Z,455
2017-08-06T16:04:13.628Z,495
2017-08-06T16:04:30.195Z,486
2017-08-06T16:04:46.769Z,495
2017-08-06T16:05:03.326Z,417
2017-08-06T16:05:19.900Z,490
2017-08-06T16:05:36.468Z,489
2017-08-06T16:05:53.027Z,474
2017-08-06T16:06:09.587Z,445
2017-08-06T16:06:26.154Z,487
2017-08-06T16:06:42.723Z,492
2017-08-06T16:06:59.279Z,436
2017-08-06T16:07:15.841Z,414
2017-08-06T16:07:32.410Z,412
2017-08-06T16:07:48.968Z,430
2017-08-06T16:08:05.535Z,412
2017-08-06T16:08:22.117Z,414
2017-08-06T16:08:38.673Z,416
2017-08-06T16:08:55.240Z,416
2017-08-06T16:09:11.815Z,418
2017-08-06T16:09:28.373Z,436
2017-08-06T16:09:44.940Z,416
2017-08-06T16:10:01.508Z,438
2017-08-06T16:10:18.064Z,447
2017-08-06T16:10:34.635Z,441
2017-08-06T16:10:51.196Z,494
2017-08-06T16:11:07.775Z,417
2017-08-06T16:11:24.334Z,487
2017-08-06T16:11:40.899Z,415
2017-08-06T16:11:57.469Z,414
2017-08-06T16:12:14.029Z,442
2017-08-06T16:12:30.596Z,493
2017-08-06T16:12:47.465Z,461
2017-08-06T16:13:04.046Z,448
2017-08-06T16:13:20.619Z,485
2017-08-06T16:13:37.181Z,420
2017-08-06T16:13:53.739Z,406
2017-08-06T16:14:10.303Z,480
2017-08-06T16:14:26.876Z,433
2017-08-06T16:14:43.444Z,475
2017-08-06T16:15:00.010Z,440
2017-08-06T16:15:16.572Z,444
2017-08-06T16:15:33.137Z,473
2017-08-06T16:15:49.703Z,408
2017-08-06T16:16:06.266Z,455
2017-08-06T16:16:22.836Z,392
2017-08-06T16:16:39.403Z,403
2017-08-06T16:16:55.999Z,469
2017-08-06T16:17:12.550Z,472
2017-08-06T16:17:29.124Z,428
2017-08-06T16:17:45.693Z,391
2017-08-06T16:18:02.251Z,393
2017-08-06T16:18:18.822Z,415
2017-08-06T16:18:35.388Z,393
2017-08-06T16:18:51.952Z,442
2017-08-06T16:19:08.527Z,391
2017-08-06T16:19:25.087Z,468
2017-08-06T16:19:41.701Z,465
2017-08-06T16:19:58.232Z,394
2017-08-06T16:20:14.799Z,467
2017-08-06T16:20:31.363Z,393
2017-08-06T16:20:47.924Z,463
2017-08-06T16:21:04.508Z,435
2017-08-06T16:21:21.065Z,440
2017-08-06T16:21:37.634Z,384
2017-08-06T16:21:54.198Z,390
2017-08-06T16:22:10.764Z,387
2017-08-06T16:22:27.323Z,384
2017-08-06T16:22:43.902Z,384
2017-08-06T16:23:00.512Z,461
2017-08-06T16:23:17.079Z,401
2017-08-06T16:23:33.638Z,385
2017-08-06T16:23:50.209Z,385
2017-08-06T16:24:06.780Z,425
2017-08-06T16:24:23.335Z,418
2017-08-06T16:24:39.927Z,456
2017-08-06T16:24:56.502Z,386
2017-08-06T16:25:13.057Z,392
2017-08-06T16:25:29.622Z,388
2017-08-06T16:25:46.185Z,457
2017-08-06T16:26:02.749Z,454
2017-08-06T16:26:19.310Z,455
2017-08-06T16:26:35.870Z,455
2017-08-06T16:26:52.435Z,455
2017-08-06T16:27:09.005Z,453
2017-08-06T16:27:25.569Z,452
2017-08-06T16:27:42.133Z,448
2017-08-06T16:27:58.688Z,448
2017-08-06T16:28:15.250Z,386
2017-08-06T16:28:31.816Z,451
2017-08-06T16:28:48.400Z,373
2017-08-06T16:29:05.085Z,386
2017-08-06T16:29:21.652Z,385
2017-08-06T16:29:38.207Z,375
2017-08-06T16:29:54.767Z,373
2017-08-06T16:30:11.330Z,373
2017-08-06T16:30:27.902Z,449
2017-08-06T16:30:44.475Z,448
2017-08-06T16:31:00.809Z,417
2017-08-06T16:31:17.381Z,374
2017-08-06T16:31:33.990Z,373
2017-08-06T16:31:50.623Z,448
2017-08-06T16:32:07.201Z,450
2017-08-06T16:32:23.763Z,448
2017-08-06T16:32:40.330Z,372
2017-08-06T16:32:56.898Z,431
2017-08-06T16:33:13.450Z,384
2017-08-06T16:33:30.007Z,451
2017-08-06T16:33:46.577Z,447
2017-08-06T16:34:03.141Z,443
2017-08-06T16:34:19.708Z,449
2017-08-06T16:34:36.273Z,449
2017-08-06T16:34:52.846Z,380
2017-08-06T16:35:09.413Z,369
2017-08-06T16:35:25.990Z,406
2017-08-06T16:35:42.546Z,381
2017-08-06T16:35:59.113Z,429
2017-08-06T16:36:15.685Z,445
2017-08-06T16:36:32.270Z,366
2017-08-06T16:36:48.821Z,433
2017-08-06T16:37:05.388Z,443
2017-08-06T16:37:21.950Z,442
2017-08-06T16:37:38.516Z,442
2017-08-06T16:37:55.070Z,362
2017-08-06T16:38:11.631Z,438
2017-08-06T16:38:28.199Z,437
2017-08-06T16:38:44.893Z,363
2017-08-06T16:39:01.456Z,367
2017-08-06T16:39:18.024Z,365
2017-08-06T16:39:34.595Z,365
2017-08-06T16:39:51.156Z,426
2017-08-06T16:40:07.713Z,441
2017-08-06T16:40:24.289Z,442
2017-08-06T16:40:40.853Z,428
2017-08-06T16:40:57.420Z,370
2017-08-06T16:41:13.993Z,366
2017-08-06T16:41:30.557Z,435
2017-08-06T16:41:47.297Z,361
2017-08-06T16:42:03.894Z,397
2017-08-06T16:42:20.465Z,392
2017-08-06T16:42:37.039Z,409
2017-08-06T16:42:53.600Z,440
2017-08-06T16:43:10.165Z,443
2017-08-06T16:43:26.734Z,433
2017-08-06T16:43:43.310Z,361
2017-08-06T16:43:59.877Z,365
2017-08-06T16:44:16.441Z,396
2017-08-06T16:44:33.002Z,429
2017-08-06T16:44:49.570Z,435
2017-08-06T16:45:06.167Z,421
2017-08-06T16:45:22.730Z,367
2017-08-06T16:45:39.300Z,395
2017-08-06T16:45:55.865Z,439
2017-08-06T16:46:12.417Z,437
2017-08-06T16:46:28.987Z,443
2017-08-06T16:46:45.556Z,433
2017-08-06T16:47:02.124Z,368
2017-08-06T16:47:18.692Z,416
2017-08-06T16:47:35.259Z,426
2017-08-06T16:47:51.828Z,385
2017-08-06T16:48:08.394Z,433
2017-08-06T16:48:24.964Z,401
2017-08-06T16:48:41.561Z,428
2017-08-06T16:48:58.123Z,432
2017-08-06T16:49:14.692Z,388
2017-08-06T16:49:31.248Z,363
2017-08-06T16:49:47.816Z,352
2017-08-06T16:50:04.369Z,429
2017-08-06T16:50:20.942Z,433
2017-08-06T16:50:37.508Z,363
2017-08-06T16:50:54.066Z,428
2017-08-06T16:51:10.644Z,355
2017-08-06T16:51:27.198Z,429
2017-08-06T16:51:43.764Z,435
2017-08-06T16:52:00.323Z,428
2017-08-06T16:52:16.923Z,371
2017-08-06T16:52:33.487Z,388
2017-08-06T16:52:50.121Z,406
2017-08-06T16:53:06.446Z,390
2017-08-06T16:53:23.176Z,367
2017-08-06T16:53:39.746Z,428
2017-08-06T16:53:56.293Z,432
2017-08-06T16:54:12.643Z,432
2017-08-06T16:54:29.211Z,359
2017-08-06T16:54:45.778Z,365
2017-08-06T16:55:02.348Z,432